Flight Track Log - Related Links

Times and Time Zones

All times are in EDT time to prevent confusion due to time zone crossing. See the N4782E flight status page for this flight to view local times or setup timezone preferences in your user account.

Time Position Orientation Groundspeed Altitude Reporting Facility
EDT Latitude Longitude Course Direction KTS MPH feet Rate Location/Type
Tue 08:38:48 PM 38.5167 -121.5167 270° West 64 74 1,200  Level Northern Cal TRACON
Tue 08:39:48 PM 38.5000 -121.5333 218° Southwest 67 77 1,700 517 Climbing Northern Cal TRACON
Tue 08:42:17 PM 38.4408 -121.5506 193° South 105 121 3,000 514 Climbing Oakland Center
Tue 08:43:00 PM 38.3589 -121.6029 212° Southwest  Level FlightAware Approximate
Tue 08:43:18 PM 38.4158 -121.5661 206° Southwest 103 119 3,500  Level Oakland Center
Tue 08:44:20 PM 38.3922 -121.5783 202° Southwest 95 109 4,000 293 Climbing Oakland Center
Tue 08:45:21 PM 38.3722 -121.6011 222° Southwest 96 110 4,100 49 Climbing Oakland Center
Tue 08:46:22 PM 38.3478 -121.6203 212° Southwest 102 117 4,100 -49 Level Oakland Center
Tue 08:47:23 PM 38.3175 -121.6356 202° Southwest 113 130 4,000 -49 Descending Oakland Center
Tue 08:48:24 PM 38.2925 -121.6664 224° Southwest 123 142 4,000  Level Oakland Center
Tue 08:49:25 PM 38.2644 -121.6917 215° Southwest 123 142 4,000 -49 Level Oakland Center
Tue 08:50:27 PM 38.2350 -121.7158 213° Southwest 125 144 3,900  Descending Oakland Center
Tue 08:51:28 PM 38.2017 -121.7322 201° Southwest 127 146 4,000 -148 Climbing Oakland Center
Tue 08:52:29 PM 38.1681 -121.7461 198° South 127 146 3,600 -639 Descending Oakland Center
Tue 08:53:30 PM 38.1489 -121.7783 233° Southwest 98 113 2,700 -787 Descending Oakland Center
Tue 08:54:31 PM 38.1439 -121.8083 258° West 89 102 2,000 -295 Descending Oakland Center
Tue 08:55:32 PM 38.1389 -121.8381 258° West 88 101 2,100 98 Climbing Oakland Center
Tue 08:56:34 PM 38.1311 -121.8728 254° West 99 114 2,200 49 Climbing Oakland Center
Tue 08:57:35 PM 38.1358 -121.9053 280° West 94 108 2,200 -98 Level Oakland Center
Tue 08:58:36 PM 38.1350 -121.9411 268° West 101 116 2,000 -49 Descending Oakland Center
Tue 08:59:37 PM 38.1331 -121.9775 266° West 104 120 2,100  Climbing Oakland Center
Tue 09:00:38 PM 38.1261 -122.0075 254° West 123 142 2,000 -295 Descending Oakland Center
Tue 09:01:39 PM 38.0942 -122.0069 179° South 119 137 1,500 -293 Descending Oakland Center
Tue 09:02:41 PM 38.0653 -122.0222 203° Southwest 115 132 1,400 -146 Descending Oakland Center
Tue 09:03:42 PM 38.0361 -122.0333 197° South 111 128 1,200 -344 Descending Oakland Center
Tue 09:04:43 PM 38.0072 -122.0481 202° Southwest 101 116 700 -295 Descending Oakland Center
Tue 09:05:44 PM 37.9839 -122.0339 154° Southeast 97 112 600 -98 Descending Oakland Center
Tue 09:06:45 PM 37.9700 -122.0628 239° Southwest 98 113 500 -98 Descending Oakland Center

Login

Don't have an account? Register now (free) for customized features, flight alerts, and more!